PWSweather.com
Personal Weather Stations
Station Observations
SELKIRK1
Ontario, Selkirk, ON N0A 1P0

OntarioSelkirk, ON N0A 1P0

Lat: 42.8083652, Lon: -79.94971040000001

Elevation: 583

Station Type: Acurite 5 in 1

http://gavinsurf.com

High Low Average
Temperature 92.8°F33.8°C 59.0°F15.0°C 75.4°F24.1°C
Dew Point 80.7°F27.1°C 58.7°F14.8°C 72.6°F22.6°C
Winds 11.5 mph 18.5 kmh Calm Calm 4.0 mph S6.4 kmh S
Wind Gusts 13.8 mph22.2 kmh -- 5.0 mph8.0 kmh
Humidity 99% 64% 92%
Pressure 31.70 in1073.5 mb 31.70 in1073.5 mb -
Precipitation 0.00 in0.0 mm - -
Hour Temp Dew Point Humidity Winds Wind Gusts Pressure Precip Precip Rate Daily Precip Total
12:00 AM 62.1°F16.7°C 61.8°F16.6°C 99% 2.3 mph NE3.7 kmh NE 2.3 mph3.7 kmh 31.70 in1073.5 mb - 0.00 in0.0 mm 0.00 in0.0 mm
12:10 AM 61.9°F16.6°C 61.6°F16.4°C 99% 2.3 mph NNE3.7 kmh NNE 2.3 mph3.7 kmh 31.70 in1073.5 mb - 0.00 in0.0 mm 0.00 in0.0 mm
12:15 AM 61.9°F16.6°C 61.7°F16.5°C 99% 3.5 mph N5.6 kmh N 3.5 mph5.6 kmh 31.70 in1073.5 mb - 0.00 in0.0 mm 0.00 in0.0 mm
12:20 AM 62.1°F16.7°C 61.8°F16.6°C 99% 2.3 mph N3.7 kmh N 2.3 mph3.7 kmh 31.70 in1073.5 mb - 0.00 in0.0 mm 0.00 in0.0 mm
12:25 AM 62.1°F16.7°C 61.8°F16.6°C 99% Calm Calm -- 31.70 in1073.5 mb - 0.00 in0.0 mm 0.00 in0.0 mm
12:30 AM 62.1°F16.7°C 61.8°F16.6°C 99% Calm Calm 1.2 mph1.9 kmh 31.70 in1073.5 mb - 0.00 in0.0 mm 0.00 in0.0 mm
12:35 AM 62.1°F16.7°C 61.8°F16.6°C 99% 1.2 mph NE1.9 kmh NE 1.2 mph1.9 kmh 31.70 in1073.5 mb - 0.00 in0.0 mm 0.00 in0.0 mm
12:40 AM 61.9°F16.6°C 61.6°F16.4°C 99% 2.3 mph NNE3.7 kmh NNE 2.3 mph3.7 kmh 31.70 in1073.5 mb - 0.00 in0.0 mm 0.00 in0.0 mm
12:45 AM 61.9°F16.6°C 61.6°F16.4°C 99% Calm Calm -- 31.70 in1073.5 mb - 0.00 in0.0 mm 0.00 in0.0 mm
12:50 AM 61.9°F16.6°C 61.6°F16.4°C 99% Calm Calm -- 31.70 in1073.5 mb - 0.00 in0.0 mm 0.00 in0.0 mm
12:55 AM 61.9°F16.6°C 61.6°F16.4°C 99% 2.3 mph NNE3.7 kmh NNE 2.3 mph3.7 kmh 31.70 in1073.5 mb - 0.00 in0.0 mm 0.00 in0.0 mm
01:00 AM 62.1°F16.7°C 61.8°F16.6°C 99% 4.6 mph N7.4 kmh N 4.6 mph7.4 kmh 31.70 in1073.5 mb - 0.00 in0.0 mm 0.00 in0.0 mm
01:10 AM 60.6°F15.9°C 60.3°F15.7°C 99% 4.6 mph N7.4 kmh N 4.6 mph7.4 kmh 31.70 in1073.5 mb - 0.00 in0.0 mm 0.00 in0.0 mm
01:15 AM 60.6°F15.9°C 60.3°F15.7°C 99% 4.6 mph N7.4 kmh N 4.6 mph7.4 kmh 31.70 in1073.5 mb - 0.00 in0.0 mm 0.00 in0.0 mm
01:20 AM 60.5°F15.8°C 60.2°F15.7°C 99% 4.6 mph N7.4 kmh N 4.6 mph7.4 kmh 31.70 in1073.5 mb - 0.00 in0.0 mm 0.00 in0.0 mm
01:25 AM 60.5°F15.8°C 60.2°F15.7°C 99% 4.6 mph N7.4 kmh N 5.8 mph9.3 kmh 31.70 in1073.5 mb - 0.00 in0.0 mm 0.00 in0.0 mm
01:30 AM 60.1°F15.6°C 59.9°F15.5°C 99% 4.6 mph N7.4 kmh N 4.6 mph7.4 kmh 31.70 in1073.5 mb - 0.00 in0.0 mm 0.00 in0.0 mm
01:35 AM 59.7°F15.4°C 59.4°F15.2°C 99% 4.6 mph N7.4 kmh N 4.6 mph7.4 kmh 31.70 in1073.5 mb - 0.00 in0.0 mm 0.00 in0.0 mm
01:40 AM 59.6°F15.3°C 59.3°F15.2°C 99% 3.5 mph NNE5.6 kmh NNE 3.5 mph5.6 kmh 31.70 in1073.5 mb - 0.00 in0.0 mm 0.00 in0.0 mm
01:45 AM 59.6°F15.3°C 59.3°F15.2°C 99% 3.5 mph N5.6 kmh N 3.5 mph5.6 kmh 31.70 in1073.5 mb - 0.00 in0.0 mm 0.00 in0.0 mm
01:50 AM 59.6°F15.3°C 59.3°F15.2°C 99% 3.5 mph N5.6 kmh N 3.5 mph5.6 kmh 31.70 in1073.5 mb - 0.00 in0.0 mm 0.00 in0.0 mm
01:55 AM 59.4°F15.2°C 59.1°F15.1°C 99% 3.5 mph N5.6 kmh N 3.5 mph5.6 kmh 31.70 in1073.5 mb - 0.00 in0.0 mm 0.00 in0.0 mm
02:00 AM 59.6°F15.3°C 59.3°F15.2°C 99% 3.5 mph N5.6 kmh N 3.5 mph5.6 kmh 31.70 in1073.5 mb - 0.00 in0.0 mm 0.00 in0.0 mm
02:10 AM 59.7°F15.4°C 59.4°F15.2°C 99% 3.5 mph N5.6 kmh N 3.5 mph5.6 kmh 31.70 in1073.5 mb - 0.00 in0.0 mm 0.00 in0.0 mm
02:15 AM 59.7°F15.4°C 59.4°F15.2°C 99% 3.5 mph NNE5.6 kmh NNE 3.5 mph5.6 kmh 31.70 in1073.5 mb - 0.00 in0.0 mm 0.00 in0.0 mm
02:20 AM 59.6°F15.3°C 59.3°F15.2°C 99% 2.3 mph N3.7 kmh N 3.5 mph5.6 kmh 31.70 in1073.5 mb - 0.00 in0.0 mm 0.00 in0.0 mm
02:25 AM 59.6°F15.3°C 59.3°F15.2°C 99% 2.3 mph NNE3.7 kmh NNE 2.3 mph3.7 kmh 31.70 in1073.5 mb - 0.00 in0.0 mm 0.00 in0.0 mm
02:30 AM 59.6°F15.3°C 59.3°F15.2°C 99% 3.5 mph NNE5.6 kmh NNE 3.5 mph5.6 kmh 31.70 in1073.5 mb - 0.00 in0.0 mm 0.00 in0.0 mm
02:35 AM 59.4°F15.2°C 59.1°F15.1°C 99% 3.5 mph N5.6 kmh N 3.5 mph5.6 kmh 31.70 in1073.5 mb - 0.00 in0.0 mm 0.00 in0.0 mm
02:40 AM 59.6°F15.3°C 59.3°F15.2°C 99% 3.5 mph N5.6 kmh N 3.5 mph5.6 kmh 31.70 in1073.5 mb - 0.00 in0.0 mm 0.00 in0.0 mm
02:45 AM 59.6°F15.3°C 59.3°F15.2°C 99% 3.5 mph N5.6 kmh N 3.5 mph5.6 kmh 31.70 in1073.5 mb - 0.00 in0.0 mm 0.00 in0.0 mm
02:50 AM 59.6°F15.3°C 59.3°F15.2°C 99% 3.5 mph N5.6 kmh N 3.5 mph5.6 kmh 31.70 in1073.5 mb - 0.00 in0.0 mm 0.00 in0.0 mm
02:55 AM 59.8°F15.4°C 59.5°F15.3°C 99% 3.5 mph N5.6 kmh N 4.6 mph7.4 kmh 31.70 in1073.5 mb - 0.00 in0.0 mm 0.00 in0.0 mm
03:00 AM 60.1°F15.6°C 59.8°F15.4°C 99% 3.5 mph N5.6 kmh N 4.6 mph7.4 kmh 31.70 in1073.5 mb - 0.00 in0.0 mm 0.00 in0.0 mm
03:10 AM 59.7°F15.4°C 59.4°F15.2°C 99% 3.5 mph N5.6 kmh N 3.5 mph5.6 kmh 31.70 in1073.5 mb - 0.00 in0.0 mm 0.00 in0.0 mm
03:15 AM 59.7°F15.4°C 59.4°F15.2°C 99% 3.5 mph N5.6 kmh N 3.5 mph5.6 kmh 31.70 in1073.5 mb - 0.00 in0.0 mm 0.00 in0.0 mm
03:20 AM 59.7°F15.4°C 59.4°F15.2°C 99% 3.5 mph N5.6 kmh N 3.5 mph5.6 kmh 31.70 in1073.5 mb - 0.00 in0.0 mm 0.00 in0.0 mm
03:25 AM 59.7°F15.4°C 59.4°F15.2°C 99% 2.3 mph N3.7 kmh N 2.3 mph3.7 kmh 31.70 in1073.5 mb - 0.00 in0.0 mm 0.00 in0.0 mm
03:30 AM 59.7°F15.4°C 59.4°F15.2°C 99% 3.5 mph N5.6 kmh N 4.6 mph7.4 kmh 31.70 in1073.5 mb - 0.00 in0.0 mm 0.00 in0.0 mm
03:35 AM 59.3°F15.2°C 59.0°F15.0°C 99% 3.5 mph N5.6 kmh N 3.5 mph5.6 kmh 31.70 in1073.5 mb - 0.00 in0.0 mm 0.00 in0.0 mm
03:40 AM 59.0°F15.0°C 58.7°F14.8°C 99% 3.5 mph N5.6 kmh N 4.6 mph7.4 kmh 31.70 in1073.5 mb - 0.00 in0.0 mm 0.00 in0.0 mm
03:45 AM 59.0°F15.0°C 58.7°F14.8°C 99% 4.6 mph N7.4 kmh N 4.6 mph7.4 kmh 31.70 in1073.5 mb - 0.00 in0.0 mm 0.00 in0.0 mm
03:50 AM 59.0°F15.0°C 58.7°F14.8°C 99% 3.5 mph N5.6 kmh N 3.5 mph5.6 kmh 31.70 in1073.5 mb - 0.00 in0.0 mm 0.00 in0.0 mm
03:55 AM 59.1°F15.1°C 58.9°F14.9°C 99% 3.5 mph N5.6 kmh N 3.5 mph5.6 kmh 31.70 in1073.5 mb - 0.00 in0.0 mm 0.00 in0.0 mm
04:00 AM 59.0°F15.0°C 58.7°F14.8°C 99% 3.5 mph N5.6 kmh N 4.6 mph7.4 kmh 31.70 in1073.5 mb - 0.00 in0.0 mm 0.00 in0.0 mm
04:10 AM 59.0°F15.0°C 58.7°F14.8°C 99% 3.5 mph N5.6 kmh N 3.5 mph5.6 kmh 31.70 in1073.5 mb - 0.00 in0.0 mm 0.00 in0.0 mm
04:15 AM 59.0°F15.0°C 58.7°F14.8°C 99% 3.5 mph N5.6 kmh N 3.5 mph5.6 kmh 31.70 in1073.5 mb - 0.00 in0.0 mm 0.00 in0.0 mm
04:20 AM 59.0°F15.0°C 58.7°F14.8°C 99% 3.5 mph N5.6 kmh N 3.5 mph5.6 kmh 31.70 in1073.5 mb - 0.00 in0.0 mm 0.00 in0.0 mm
04:25 AM 59.1°F15.1°C 58.8°F14.9°C 99% 3.5 mph N5.6 kmh N 3.5 mph5.6 kmh 31.70 in1073.5 mb - 0.00 in0.0 mm 0.00 in0.0 mm
04:30 AM 59.6°F15.3°C 59.3°F15.2°C 99% 3.5 mph N5.6 kmh N 3.5 mph5.6 kmh 31.70 in1073.5 mb - 0.00 in0.0 mm 0.00 in0.0 mm
04:35 AM 59.7°F15.4°C 59.4°F15.2°C 99% 3.5 mph N5.6 kmh N 3.5 mph5.6 kmh 31.70 in1073.5 mb - 0.00 in0.0 mm 0.00 in0.0 mm
04:40 AM 59.9°F15.5°C 59.6°F15.3°C 99% 3.5 mph N5.6 kmh N 3.5 mph5.6 kmh 31.70 in1073.5 mb - 0.00 in0.0 mm 0.00 in0.0 mm
04:45 AM 59.9°F15.5°C 59.6°F15.3°C 99% 2.3 mph N3.7 kmh N 2.3 mph3.7 kmh 31.70 in1073.5 mb - 0.00 in0.0 mm 0.00 in0.0 mm
04:50 AM 60.1°F15.6°C 59.8°F15.4°C 99% Calm Calm -- 31.70 in1073.5 mb - 0.00 in0.0 mm 0.00 in0.0 mm
04:55 AM 60.5°F15.8°C 60.2°F15.7°C 99% 1.2 mph NNE1.9 kmh NNE 2.3 mph3.7 kmh 31.70 in1073.5 mb - 0.00 in0.0 mm 0.00 in0.0 mm
05:00 AM 60.3°F15.7°C 60.0°F15.6°C 99% 2.3 mph NNE3.7 kmh NNE 2.3 mph3.7 kmh 31.70 in1073.5 mb - 0.00 in0.0 mm 0.00 in0.0 mm
05:10 AM 60.1°F15.6°C 59.8°F15.4°C 99% 3.5 mph N5.6 kmh N 3.5 mph5.6 kmh 31.70 in1073.5 mb - 0.00 in0.0 mm 0.00 in0.0 mm
05:15 AM 59.8°F15.4°C 59.5°F15.3°C 99% 3.5 mph N5.6 kmh N 3.5 mph5.6 kmh 31.70 in1073.5 mb - 0.00 in0.0 mm 0.00 in0.0 mm
05:20 AM 59.6°F15.3°C 59.3°F15.2°C 99% 3.5 mph NNE5.6 kmh NNE 3.5 mph5.6 kmh 31.70 in1073.5 mb - 0.00 in0.0 mm 0.00 in0.0 mm
05:25 AM 59.7°F15.4°C 59.4°F15.2°C 99% 3.5 mph N5.6 kmh N 3.5 mph5.6 kmh 31.70 in1073.5 mb - 0.00 in0.0 mm 0.00 in0.0 mm
05:30 AM 59.9°F15.5°C 59.6°F15.3°C 99% 2.3 mph N3.7 kmh N 2.3 mph3.7 kmh 31.70 in1073.5 mb - 0.00 in0.0 mm 0.00 in0.0 mm
05:35 AM 60.5°F15.8°C 60.2°F15.7°C 99% 2.3 mph NNE3.7 kmh NNE 2.3 mph3.7 kmh 31.70 in1073.5 mb - 0.00 in0.0 mm 0.00 in0.0 mm
05:40 AM 60.5°F15.8°C 60.2°F15.7°C 99% 2.3 mph N3.7 kmh N 2.3 mph3.7 kmh 31.70 in1073.5 mb - 0.00 in0.0 mm 0.00 in0.0 mm
05:45 AM 60.6°F15.9°C 60.3°F15.7°C 99% 2.3 mph N3.7 kmh N 2.3 mph3.7 kmh 31.70 in1073.5 mb - 0.00 in0.0 mm 0.00 in0.0 mm
05:50 AM 60.8°F16.0°C 60.5°F15.8°C 99% 2.3 mph N3.7 kmh N 2.3 mph3.7 kmh 31.70 in1073.5 mb - 0.00 in0.0 mm 0.00 in0.0 mm
05:55 AM 61.0°F16.1°C 60.7°F15.9°C 99% 2.3 mph N3.7 kmh N 2.3 mph3.7 kmh 31.70 in1073.5 mb - 0.00 in0.0 mm 0.00 in0.0 mm
06:00 AM 61.4°F16.3°C 61.1°F16.2°C 99% 2.3 mph N3.7 kmh N 2.3 mph3.7 kmh 31.70 in1073.5 mb - 0.00 in0.0 mm 0.00 in0.0 mm
06:10 AM 62.3°F16.8°C 62.0°F16.7°C 99% 1.2 mph SW1.9 kmh SW 2.3 mph3.7 kmh 31.70 in1073.5 mb - 0.00 in0.0 mm 0.00 in0.0 mm
06:15 AM 65.3°F18.5°C 65.0°F18.3°C 99% 2.3 mph NNE3.7 kmh NNE 2.3 mph3.7 kmh 31.70 in1073.5 mb - 0.00 in0.0 mm 0.00 in0.0 mm
06:20 AM 65.1°F18.4°C 64.8°F18.2°C 99% 1.2 mph W1.9 kmh W 1.2 mph1.9 kmh 31.70 in1073.5 mb - 0.00 in0.0 mm 0.00 in0.0 mm
06:25 AM 63.7°F17.6°C 63.5°F17.5°C 99% 2.3 mph N3.7 kmh N 2.3 mph3.7 kmh 31.70 in1073.5 mb - 0.00 in0.0 mm 0.00 in0.0 mm
06:30 AM 63.5°F17.5°C 63.2°F17.3°C 99% 2.3 mph WSW3.7 kmh WSW 2.3 mph3.7 kmh 31.70 in1073.5 mb - 0.00 in0.0 mm 0.00 in0.0 mm
06:35 AM 66.5°F19.2°C 66.2°F19.0°C 99% 3.5 mph S5.6 kmh S 4.6 mph7.4 kmh 31.70 in1073.5 mb - 0.00 in0.0 mm 0.00 in0.0 mm
06:40 AM 69.4°F20.8°C 69.1°F20.6°C 99% 3.5 mph SSW5.6 kmh SSW 4.6 mph7.4 kmh 31.70 in1073.5 mb - 0.00 in0.0 mm 0.00 in0.0 mm
06:45 AM 70.4°F21.3°C 70.1°F21.2°C 99% 3.5 mph SSW5.6 kmh SSW 2.3 mph3.7 kmh 31.70 in1073.5 mb - 0.00 in0.0 mm 0.00 in0.0 mm
06:50 AM 70.7°F21.5°C 70.4°F21.3°C 99% 3.5 mph S5.6 kmh S 3.5 mph5.6 kmh 31.70 in1073.5 mb - 0.00 in0.0 mm 0.00 in0.0 mm
06:55 AM 70.9°F21.6°C 70.6°F21.4°C 99% 4.6 mph S7.4 kmh S 4.6 mph7.4 kmh 31.70 in1073.5 mb - 0.00 in0.0 mm 0.00 in0.0 mm
07:00 AM 70.9°F21.6°C 70.6°F21.4°C 99% 2.3 mph SSW3.7 kmh SSW 3.5 mph5.6 kmh 31.70 in1073.5 mb - 0.00 in0.0 mm 0.00 in0.0 mm
07:10 AM 71.1°F21.7°C 70.8°F21.6°C 99% 2.3 mph S3.7 kmh S 2.3 mph3.7 kmh 31.70 in1073.5 mb - 0.00 in0.0 mm 0.00 in0.0 mm
07:15 AM 71.3°F21.8°C 71.0°F21.7°C 99% 2.3 mph S3.7 kmh S 3.5 mph5.6 kmh 31.70 in1073.5 mb - 0.00 in0.0 mm 0.00 in0.0 mm
07:20 AM 71.3°F21.8°C 71.0°F21.7°C 99% 2.3 mph S3.7 kmh S 2.3 mph3.7 kmh 31.70 in1073.5 mb - 0.00 in0.0 mm 0.00 in0.0 mm
07:25 AM 71.4°F21.9°C 71.1°F21.7°C 99% 2.3 mph S3.7 kmh S 2.3 mph3.7 kmh 31.70 in1073.5 mb - 0.00 in0.0 mm 0.00 in0.0 mm
07:30 AM 71.6°F22.0°C 71.3°F21.8°C 99% 3.5 mph SSW5.6 kmh SSW 4.6 mph7.4 kmh 31.70 in1073.5 mb - 0.00 in0.0 mm 0.00 in0.0 mm
07:35 AM 71.8°F22.1°C 71.5°F21.9°C 99% 2.3 mph S3.7 kmh S 2.3 mph3.7 kmh 31.70 in1073.5 mb - 0.00 in0.0 mm 0.00 in0.0 mm
07:40 AM 72.0°F22.2°C 71.7°F22.1°C 99% 2.3 mph S3.7 kmh S 2.3 mph3.7 kmh 31.70 in1073.5 mb - 0.00 in0.0 mm 0.00 in0.0 mm
07:45 AM 72.2°F22.3°C 71.9°F22.2°C 99% 2.3 mph S3.7 kmh S 2.3 mph3.7 kmh 31.70 in1073.5 mb - 0.00 in0.0 mm 0.00 in0.0 mm
07:50 AM 72.3°F22.4°C 72.0°F22.2°C 99% 2.3 mph SSE3.7 kmh SSE 3.5 mph5.6 kmh 31.70 in1073.5 mb - 0.00 in0.0 mm 0.00 in0.0 mm
07:55 AM 72.5°F22.5°C 72.2°F22.3°C 99% 2.3 mph S3.7 kmh S 2.3 mph3.7 kmh 31.70 in1073.5 mb - 0.00 in0.0 mm 0.00 in0.0 mm
08:00 AM 72.5°F22.5°C 72.2°F22.3°C 99% 3.5 mph SSW5.6 kmh SSW 4.6 mph7.4 kmh 31.70 in1073.5 mb - 0.00 in0.0 mm 0.00 in0.0 mm
08:10 AM 72.9°F22.7°C 72.6°F22.6°C 99% 4.6 mph SSW7.4 kmh SSW 5.8 mph9.3 kmh 31.70 in1073.5 mb - 0.00 in0.0 mm 0.00 in0.0 mm
08:15 AM 72.9°F22.7°C 72.6°F22.6°C 99% 5.8 mph S9.3 kmh S 6.9 mph11.1 kmh 31.70 in1073.5 mb - 0.00 in0.0 mm 0.00 in0.0 mm
08:20 AM 73.2°F22.9°C 72.9°F22.7°C 99% 5.8 mph S9.3 kmh S 8.1 mph13.0 kmh 31.70 in1073.5 mb - 0.00 in0.0 mm 0.00 in0.0 mm
08:25 AM 73.4°F23.0°C 73.1°F22.8°C 99% 6.9 mph S11.1 kmh S 6.9 mph11.1 kmh 31.70 in1073.5 mb - 0.00 in0.0 mm 0.00 in0.0 mm
08:30 AM 73.6°F23.1°C 73.3°F22.9°C 99% 5.8 mph SSE9.3 kmh SSE 5.8 mph9.3 kmh 31.70 in1073.5 mb - 0.00 in0.0 mm 0.00 in0.0 mm
08:35 AM 74.0°F23.3°C 73.7°F23.2°C 99% 5.8 mph S9.3 kmh S 5.8 mph9.3 kmh 31.70 in1073.5 mb - 0.00 in0.0 mm 0.00 in0.0 mm
08:40 AM 74.1°F23.4°C 73.8°F23.2°C 99% 8.1 mph S13.0 kmh S 8.1 mph13.0 kmh 31.70 in1073.5 mb - 0.00 in0.0 mm 0.00 in0.0 mm
08:45 AM 74.1°F23.4°C 73.8°F23.2°C 99% 8.1 mph SSW13.0 kmh SSW 11.5 mph18.5 kmh 31.70 in1073.5 mb - 0.00 in0.0 mm 0.00 in0.0 mm
08:50 AM 74.3°F23.5°C 74.0°F23.3°C 99% 10.4 mph SSW16.7 kmh SSW 10.4 mph16.7 kmh 31.70 in1073.5 mb - 0.00 in0.0 mm 0.00 in0.0 mm
08:55 AM 74.3°F23.5°C 74.0°F23.3°C 99% 10.4 mph SSW16.7 kmh SSW 10.4 mph16.7 kmh 31.70 in1073.5 mb - 0.00 in0.0 mm 0.00 in0.0 mm
09:00 AM 74.5°F23.6°C 74.2°F23.4°C 99% 10.4 mph SSW16.7 kmh SSW 12.7 mph20.4 kmh 31.70 in1073.5 mb - 0.00 in0.0 mm 0.00 in0.0 mm
09:10 AM 74.7°F23.7°C 74.4°F23.6°C 99% 10.4 mph SW16.7 kmh SW 10.4 mph16.7 kmh 31.70 in1073.5 mb - 0.00 in0.0 mm 0.00 in0.0 mm
09:15 AM 75.0°F23.9°C 74.7°F23.7°C 99% 9.2 mph SW14.8 kmh SW 9.2 mph14.8 kmh 31.70 in1073.5 mb - 0.00 in0.0 mm 0.00 in0.0 mm
09:20 AM 75.2°F24.0°C 74.6°F23.7°C 98% 8.1 mph SSW13.0 kmh SSW 9.2 mph14.8 kmh 31.70 in1073.5 mb - 0.00 in0.0 mm 0.00 in0.0 mm
09:25 AM 75.4°F24.1°C 74.8°F23.8°C 98% 8.1 mph SSW13.0 kmh SSW 10.4 mph16.7 kmh 31.70 in1073.5 mb - 0.00 in0.0 mm 0.00 in0.0 mm
09:30 AM 75.4°F24.1°C 74.8°F23.8°C 98% 9.2 mph SSW14.8 kmh SSW 9.2 mph14.8 kmh 31.70 in1073.5 mb - 0.00 in0.0 mm 0.00 in0.0 mm
09:35 AM 75.8°F24.3°C 74.9°F23.8°C 97% 9.2 mph SSW14.8 kmh SSW 10.4 mph16.7 kmh 31.70 in1073.5 mb - 0.00 in0.0 mm 0.00 in0.0 mm
09:40 AM 75.9°F24.4°C 74.7°F23.7°C 96% 8.1 mph SSW13.0 kmh SSW 9.2 mph14.8 kmh 31.70 in1073.5 mb - 0.00 in0.0 mm 0.00 in0.0 mm
09:45 AM 76.1°F24.5°C 74.9°F23.8°C 96% 6.9 mph SSW11.1 kmh SSW 6.9 mph11.1 kmh 31.70 in1073.5 mb - 0.00 in0.0 mm 0.00 in0.0 mm
09:50 AM 77.3°F25.2°C 75.7°F24.3°C 95% 5.8 mph SW9.3 kmh SW 5.8 mph9.3 kmh 31.70 in1073.5 mb - 0.00 in0.0 mm 0.00 in0.0 mm
09:55 AM 78.2°F25.7°C 76.0°F24.4°C 93% 5.8 mph SSW9.3 kmh SSW 5.8 mph9.3 kmh 31.70 in1073.5 mb - 0.00 in0.0 mm 0.00 in0.0 mm
10:00 AM 78.8°F26.0°C 76.3°F24.6°C 92% 5.8 mph SW9.3 kmh SW 6.9 mph11.1 kmh 31.70 in1073.5 mb - 0.00 in0.0 mm 0.00 in0.0 mm
10:10 AM 79.8°F26.6°C 76.6°F24.8°C 90% 3.5 mph SSW5.6 kmh SSW 3.5 mph5.6 kmh 31.70 in1073.5 mb - 0.00 in0.0 mm 0.00 in0.0 mm
10:15 AM 80.6°F27.0°C 77.0°F25.0°C 89% 4.6 mph SW7.4 kmh SW 4.6 mph7.4 kmh 31.70 in1073.5 mb - 0.00 in0.0 mm 0.00 in0.0 mm
10:20 AM 81.0°F27.2°C 76.7°F24.8°C 87% 3.5 mph SW5.6 kmh SW 4.6 mph7.4 kmh 31.70 in1073.5 mb - 0.00 in0.0 mm 0.00 in0.0 mm
10:25 AM 81.2°F27.3°C 76.9°F24.9°C 87% 2.3 mph SW3.7 kmh SW 3.5 mph5.6 kmh 31.70 in1073.5 mb - 0.00 in0.0 mm 0.00 in0.0 mm
10:30 AM 81.4°F27.4°C 76.4°F24.7°C 85% 3.5 mph SSW5.6 kmh SSW 3.5 mph5.6 kmh 31.70 in1073.5 mb - 0.00 in0.0 mm 0.00 in0.0 mm
10:35 AM 81.4°F27.4°C 76.8°F24.9°C 86% 4.6 mph SW7.4 kmh SW 5.8 mph9.3 kmh 31.70 in1073.5 mb - 0.00 in0.0 mm 0.00 in0.0 mm
10:40 AM 81.0°F27.2°C 76.4°F24.7°C 86% 4.6 mph SW7.4 kmh SW 5.8 mph9.3 kmh 31.70 in1073.5 mb - 0.00 in0.0 mm 0.00 in0.0 mm
10:45 AM 79.9°F26.6°C 76.4°F24.7°C 89% 4.6 mph S7.4 kmh S 5.8 mph9.3 kmh 31.70 in1073.5 mb - 0.00 in0.0 mm 0.00 in0.0 mm
10:50 AM 79.7°F26.5°C 76.5°F24.7°C 90% 4.6 mph SSW7.4 kmh SSW 5.8 mph9.3 kmh 31.70 in1073.5 mb - 0.00 in0.0 mm 0.00 in0.0 mm
10:55 AM 78.6°F25.9°C 76.1°F24.5°C 92% 4.6 mph S7.4 kmh S 5.8 mph9.3 kmh 31.70 in1073.5 mb - 0.00 in0.0 mm 0.00 in0.0 mm
11:00 AM 78.1°F25.6°C 75.9°F24.4°C 93% 5.8 mph SSW9.3 kmh SSW 5.8 mph9.3 kmh 31.70 in1073.5 mb - 0.00 in0.0 mm 0.00 in0.0 mm
11:10 AM 80.8°F27.1°C 77.3°F25.2°C 89% 3.5 mph S5.6 kmh S 4.6 mph7.4 kmh 31.70 in1073.5 mb - 0.00 in0.0 mm 0.00 in0.0 mm
11:15 AM 81.7°F27.6°C 77.4°F25.2°C 87% 3.5 mph S5.6 kmh S 3.5 mph5.6 kmh 31.70 in1073.5 mb - 0.00 in0.0 mm 0.00 in0.0 mm
11:20 AM 82.4°F28.0°C 77.8°F25.4°C 86% 3.5 mph SSW5.6 kmh SSW 4.6 mph7.4 kmh 31.70 in1073.5 mb - 0.00 in0.0 mm 0.00 in0.0 mm
11:25 AM 82.4°F28.0°C 77.8°F25.4°C 86% 3.5 mph SSW5.6 kmh SSW 4.6 mph7.4 kmh 31.70 in1073.5 mb - 0.00 in0.0 mm 0.00 in0.0 mm
11:30 AM 82.1°F27.8°C 77.9°F25.5°C 87% 3.5 mph S5.6 kmh S 4.6 mph7.4 kmh 31.70 in1073.5 mb - 0.00 in0.0 mm 0.00 in0.0 mm
11:35 AM 82.7°F28.2°C 78.1°F25.6°C 86% 4.6 mph S7.4 kmh S 5.8 mph9.3 kmh 31.70 in1073.5 mb - 0.00 in0.0 mm 0.00 in0.0 mm
11:40 AM 81.3°F27.4°C 77.1°F25.1°C 87% 3.5 mph SW5.6 kmh SW 4.6 mph7.4 kmh 31.70 in1073.5 mb - 0.00 in0.0 mm 0.00 in0.0 mm
11:45 AM 83.9°F28.8°C 78.2°F25.7°C 83% 3.5 mph SSW5.6 kmh SSW 4.6 mph7.4 kmh 31.70 in1073.5 mb - 0.00 in0.0 mm 0.00 in0.0 mm
11:50 AM 85.2°F29.6°C 78.4°F25.8°C 80% 3.5 mph SW5.6 kmh SW 4.6 mph7.4 kmh 31.70 in1073.5 mb - 0.00 in0.0 mm 0.00 in0.0 mm
11:55 AM 84.6°F29.2°C 78.1°F25.6°C 81% 3.5 mph SSW5.6 kmh SSW 4.6 mph7.4 kmh 31.70 in1073.5 mb - 0.00 in0.0 mm 0.00 in0.0 mm
12:00 PM 85.5°F29.7°C 78.2°F25.7°C 79% 3.5 mph SSW5.6 kmh SSW 3.5 mph5.6 kmh 31.70 in1073.5 mb - 0.00 in0.0 mm 0.00 in0.0 mm
12:10 PM 86.9°F30.5°C 78.8°F26.0°C 77% 3.5 mph SW5.6 kmh SW 3.5 mph5.6 kmh 31.70 in1073.5 mb - 0.00 in0.0 mm 0.00 in0.0 mm
12:15 PM 87.3°F30.7°C 78.8°F26.0°C 76% 3.5 mph SW5.6 kmh SW 3.5 mph5.6 kmh 31.70 in1073.5 mb - 0.00 in0.0 mm 0.00 in0.0 mm
12:20 PM 84.5°F29.2°C 78.0°F25.6°C 81% 3.5 mph SSW5.6 kmh SSW 4.6 mph7.4 kmh 31.70 in1073.5 mb - 0.00 in0.0 mm 0.00 in0.0 mm
12:25 PM 82.6°F28.1°C 78.0°F25.6°C 86% 3.5 mph S5.6 kmh S 3.5 mph5.6 kmh 31.70 in1073.5 mb - 0.00 in0.0 mm 0.00 in0.0 mm
12:30 PM 82.1°F27.8°C 77.2°F25.1°C 85% 3.5 mph S5.6 kmh S 3.5 mph5.6 kmh 31.70 in1073.5 mb - 0.00 in0.0 mm 0.00 in0.0 mm
12:35 PM 82.9°F28.3°C 77.6°F25.3°C 84% 3.5 mph S5.6 kmh S 3.5 mph5.6 kmh 31.70 in1073.5 mb - 0.00 in0.0 mm 0.00 in0.0 mm
12:40 PM 83.9°F28.8°C 77.8°F25.4°C 82% 3.5 mph S5.6 kmh S 3.5 mph5.6 kmh 31.70 in1073.5 mb - 0.00 in0.0 mm 0.00 in0.0 mm
12:45 PM 87.5°F30.8°C 78.6°F25.9°C 75% 2.3 mph SW3.7 kmh SW 3.5 mph5.6 kmh 31.70 in1073.5 mb - 0.00 in0.0 mm 0.00 in0.0 mm
12:50 PM 86.7°F30.4°C 78.7°F25.9°C 77% 2.3 mph S3.7 kmh S 2.3 mph3.7 kmh 31.70 in1073.5 mb - 0.00 in0.0 mm 0.00 in0.0 mm
12:55 PM 84.6°F29.2°C 78.5°F25.8°C 82% 2.3 mph S3.7 kmh S 3.5 mph5.6 kmh 31.70 in1073.5 mb - 0.00 in0.0 mm 0.00 in0.0 mm
01:00 PM 83.9°F28.8°C 77.5°F25.3°C 81% 3.5 mph S5.6 kmh S 4.6 mph7.4 kmh 31.70 in1073.5 mb - 0.00 in0.0 mm 0.00 in0.0 mm
01:10 PM 84.4°F29.1°C 77.9°F25.5°C 81% 3.5 mph S5.6 kmh S 3.5 mph5.6 kmh 31.70 in1073.5 mb - 0.00 in0.0 mm 0.00 in0.0 mm
01:15 PM 84.5°F29.2°C 77.6°F25.3°C 80% 4.6 mph S7.4 kmh S 5.8 mph9.3 kmh 31.70 in1073.5 mb - 0.00 in0.0 mm 0.00 in0.0 mm
01:20 PM 83.9°F28.8°C 77.4°F25.2°C 81% 4.6 mph SSW7.4 kmh SSW 4.6 mph7.4 kmh 31.70 in1073.5 mb - 0.00 in0.0 mm 0.00 in0.0 mm
01:25 PM 85.4°F29.7°C 78.5°F25.8°C 80% 3.5 mph S5.6 kmh S 3.5 mph5.6 kmh 31.70 in1073.5 mb - 0.00 in0.0 mm 0.00 in0.0 mm
01:30 PM 86.1°F30.1°C 78.4°F25.8°C 78% 2.3 mph SSE3.7 kmh SSE 4.6 mph7.4 kmh 31.70 in1073.5 mb - 0.00 in0.0 mm 0.00 in0.0 mm
01:35 PM 84.9°F29.4°C 78.4°F25.8°C 81% 3.5 mph S5.6 kmh S 4.6 mph7.4 kmh 31.70 in1073.5 mb - 0.00 in0.0 mm 0.00 in0.0 mm
01:40 PM 83.7°F28.7°C 78.0°F25.6°C 83% 4.6 mph SSW7.4 kmh SSW 4.6 mph7.4 kmh 31.70 in1073.5 mb - 0.00 in0.0 mm 0.00 in0.0 mm
01:45 PM 83.8°F28.8°C 77.7°F25.4°C 82% 4.6 mph SE7.4 kmh SE 4.6 mph7.4 kmh 31.70 in1073.5 mb - 0.00 in0.0 mm 0.00 in0.0 mm
01:50 PM 84.1°F28.9°C 78.0°F25.6°C 82% 3.5 mph SSE5.6 kmh SSE 4.6 mph7.4 kmh 31.70 in1073.5 mb - 0.00 in0.0 mm 0.00 in0.0 mm
01:55 PM 83.2°F28.4°C 77.5°F25.3°C 83% 4.6 mph S7.4 kmh S 4.6 mph7.4 kmh 31.70 in1073.5 mb - 0.00 in0.0 mm 0.00 in0.0 mm
02:00 PM 83.5°F28.6°C 78.1°F25.6°C 84% 3.5 mph S5.6 kmh S 3.5 mph5.6 kmh 31.70 in1073.5 mb - 0.00 in0.0 mm 0.00 in0.0 mm
02:10 PM 84.0°F28.9°C 78.6°F25.9°C 84% 3.5 mph S5.6 kmh S 3.5 mph5.6 kmh 31.70 in1073.5 mb - 0.00 in0.0 mm 0.00 in0.0 mm
02:15 PM 83.9°F28.8°C 78.5°F25.8°C 84% 3.5 mph SW5.6 kmh SW 3.5 mph5.6 kmh 31.70 in1073.5 mb - 0.00 in0.0 mm 0.00 in0.0 mm
02:20 PM 86.5°F30.3°C 79.6°F26.4°C 80% 2.3 mph SSE3.7 kmh SSE 3.5 mph5.6 kmh 31.70 in1073.5 mb - 0.00 in0.0 mm 0.00 in0.0 mm
02:25 PM 84.9°F29.4°C 78.4°F25.8°C 81% 3.5 mph E5.6 kmh E 4.6 mph7.4 kmh 31.70 in1073.5 mb - 0.00 in0.0 mm 0.00 in0.0 mm
02:30 PM 85.3°F29.6°C 78.8°F26.0°C 81% 3.5 mph SSE5.6 kmh SSE 3.5 mph5.6 kmh 31.70 in1073.5 mb - 0.00 in0.0 mm 0.00 in0.0 mm
02:35 PM 86.6°F30.3°C 79.0°F26.1°C 78% 2.3 mph SE3.7 kmh SE 2.3 mph3.7 kmh 31.70 in1073.5 mb - 0.00 in0.0 mm 0.00 in0.0 mm
02:40 PM 87.1°F30.6°C 79.4°F26.3°C 78% 2.3 mph SE3.7 kmh SE 2.3 mph3.7 kmh 31.70 in1073.5 mb - 0.00 in0.0 mm 0.00 in0.0 mm
02:45 PM 87.1°F30.6°C 79.4°F26.3°C 78% 2.3 mph ESE3.7 kmh ESE 2.3 mph3.7 kmh 31.70 in1073.5 mb - 0.00 in0.0 mm 0.00 in0.0 mm
02:50 PM 87.3°F30.7°C 79.6°F26.4°C 78% 2.3 mph E3.7 kmh E 2.3 mph3.7 kmh 31.70 in1073.5 mb - 0.00 in0.0 mm 0.00 in0.0 mm
02:55 PM 90.9°F32.7°C 80.2°F26.8°C 71% 2.3 mph SE3.7 kmh SE 2.3 mph3.7 kmh 31.70 in1073.5 mb - 0.00 in0.0 mm 0.00 in0.0 mm
03:00 PM 90.0°F32.2°C 80.1°F26.7°C 73% 2.3 mph SE3.7 kmh SE 2.3 mph3.7 kmh 31.70 in1073.5 mb - 0.00 in0.0 mm 0.00 in0.0 mm
03:10 PM 85.9°F29.9°C 78.6°F25.9°C 79% 3.5 mph SE5.6 kmh SE 3.5 mph5.6 kmh 31.70 in1073.5 mb - 0.00 in0.0 mm 0.00 in0.0 mm
03:15 PM 85.7°F29.8°C 79.2°F26.2°C 81% 2.3 mph S3.7 kmh S 2.3 mph3.7 kmh 31.70 in1073.5 mb - 0.00 in0.0 mm 0.00 in0.0 mm
03:20 PM 84.8°F29.3°C 79.1°F26.2°C 83% 3.5 mph S5.6 kmh S 4.6 mph7.4 kmh 31.70 in1073.5 mb - 0.00 in0.0 mm 0.00 in0.0 mm
03:25 PM 85.0°F29.4°C 79.6°F26.4°C 84% 1.2 mph S1.9 kmh S 2.3 mph3.7 kmh 31.70 in1073.5 mb - 0.00 in0.0 mm 0.00 in0.0 mm
03:30 PM 84.9°F29.4°C 79.6°F26.4°C 84% 3.5 mph S5.6 kmh S 3.5 mph5.6 kmh 31.70 in1073.5 mb - 0.00 in0.0 mm 0.00 in0.0 mm
03:35 PM 85.8°F29.9°C 80.1°F26.7°C 83% 2.3 mph SE3.7 kmh SE 2.3 mph3.7 kmh 31.70 in1073.5 mb - 0.00 in0.0 mm 0.00 in0.0 mm
03:40 PM 87.3°F30.7°C 79.6°F26.4°C 78% 2.3 mph S3.7 kmh S 3.5 mph5.6 kmh 31.70 in1073.5 mb - 0.00 in0.0 mm 0.00 in0.0 mm
03:45 PM 88.7°F31.5°C 79.3°F26.3°C 74% 2.3 mph S3.7 kmh S 3.5 mph5.6 kmh 31.70 in1073.5 mb - 0.00 in0.0 mm 0.00 in0.0 mm
03:50 PM 87.8°F31.0°C 79.7°F26.5°C 77% 1.2 mph ESE1.9 kmh ESE 2.3 mph3.7 kmh 31.70 in1073.5 mb - 0.00 in0.0 mm 0.00 in0.0 mm
03:55 PM 87.5°F30.8°C 79.8°F26.6°C 78% 2.3 mph SSW3.7 kmh SSW 2.3 mph3.7 kmh 31.70 in1073.5 mb - 0.00 in0.0 mm 0.00 in0.0 mm
04:00 PM 87.1°F30.6°C 79.0°F26.1°C 77% 2.3 mph S3.7 kmh S 3.5 mph5.6 kmh 31.70 in1073.5 mb - 0.00 in0.0 mm 0.00 in0.0 mm
04:10 PM 87.7°F30.9°C 79.6°F26.4°C 77% 2.3 mph S3.7 kmh S 2.3 mph3.7 kmh 31.70 in1073.5 mb - 0.00 in0.0 mm 0.00 in0.0 mm
04:15 PM 89.6°F32.0°C 80.2°F26.8°C 74% 2.3 mph S3.7 kmh S 2.3 mph3.7 kmh 31.70 in1073.5 mb - 0.00 in0.0 mm 0.00 in0.0 mm
04:20 PM 88.6°F31.4°C 80.4°F26.9°C 77% 2.3 mph SSE3.7 kmh SSE 3.5 mph5.6 kmh 31.70 in1073.5 mb - 0.00 in0.0 mm 0.00 in0.0 mm
04:25 PM 90.1°F32.3°C 80.3°F26.8°C 73% 2.3 mph SSW3.7 kmh SSW 2.3 mph3.7 kmh 31.70 in1073.5 mb - 0.00 in0.0 mm 0.00 in0.0 mm
04:30 PM 90.3°F32.4°C 80.5°F26.9°C 73% 2.3 mph S3.7 kmh S 3.5 mph5.6 kmh 31.70 in1073.5 mb - 0.00 in0.0 mm 0.00 in0.0 mm
04:35 PM 90.2°F32.3°C 79.9°F26.6°C 72% 2.3 mph S3.7 kmh S 2.3 mph3.7 kmh 31.70 in1073.5 mb - 0.00 in0.0 mm 0.00 in0.0 mm
04:40 PM 89.3°F31.8°C 79.9°F26.6°C 74% Calm Calm 2.3 mph3.7 kmh 31.70 in1073.5 mb - 0.00 in0.0 mm 0.00 in0.0 mm
04:45 PM 92.1°F33.4°C 78.7°F25.9°C 65% 2.3 mph SW3.7 kmh SW 2.3 mph3.7 kmh 31.70 in1073.5 mb - 0.00 in0.0 mm 0.00 in0.0 mm
04:50 PM 92.8°F33.8°C 78.9°F26.1°C 64% 2.3 mph SSW3.7 kmh SSW 2.3 mph3.7 kmh 31.70 in1073.5 mb - 0.00 in0.0 mm 0.00 in0.0 mm
04:55 PM 91.8°F33.2°C 79.3°F26.3°C 67% 2.3 mph SE3.7 kmh SE 2.3 mph3.7 kmh 31.70 in1073.5 mb - 0.00 in0.0 mm 0.00 in0.0 mm
05:00 PM 89.3°F31.8°C 79.5°F26.4°C 73% 2.3 mph SE3.7 kmh SE 1.2 mph1.9 kmh 31.70 in1073.5 mb - 0.00 in0.0 mm 0.00 in0.0 mm
05:10 PM 90.8°F32.7°C 80.1°F26.7°C 71% 2.3 mph SE3.7 kmh SE 2.3 mph3.7 kmh 31.70 in1073.5 mb - 0.00 in0.0 mm 0.00 in0.0 mm
05:15 PM 89.4°F31.9°C 80.5°F26.9°C 75% 1.2 mph ESE1.9 kmh ESE 1.2 mph1.9 kmh 31.70 in1073.5 mb - 0.00 in0.0 mm 0.00 in0.0 mm
05:20 PM 88.7°F31.5°C 79.8°F26.6°C 75% 2.3 mph S3.7 kmh S 2.3 mph3.7 kmh 31.70 in1073.5 mb - 0.00 in0.0 mm 0.00 in0.0 mm
05:25 PM 88.6°F31.4°C 80.1°F26.7°C 76% 2.3 mph SE3.7 kmh SE 2.3 mph3.7 kmh 31.70 in1073.5 mb - 0.00 in0.0 mm 0.00 in0.0 mm
05:30 PM 88.9°F31.6°C 79.9°F26.6°C 75% 2.3 mph SE3.7 kmh SE 3.5 mph5.6 kmh 31.70 in1073.5 mb - 0.00 in0.0 mm 0.00 in0.0 mm
05:35 PM 89.3°F31.8°C 80.7°F27.1°C 76% 2.3 mph SE3.7 kmh SE 2.3 mph3.7 kmh 31.70 in1073.5 mb - 0.00 in0.0 mm 0.00 in0.0 mm
05:40 PM 89.4°F31.9°C 80.0°F26.7°C 74% 2.3 mph SSE3.7 kmh SSE 2.3 mph3.7 kmh 31.70 in1073.5 mb - 0.00 in0.0 mm 0.00 in0.0 mm
05:45 PM 87.5°F30.8°C 80.2°F26.8°C 79% 2.3 mph SE3.7 kmh SE 2.3 mph3.7 kmh 31.70 in1073.5 mb - 0.00 in0.0 mm 0.00 in0.0 mm
05:50 PM 87.6°F30.9°C 79.9°F26.6°C 78% 1.2 mph SE1.9 kmh SE 2.3 mph3.7 kmh 31.70 in1073.5 mb - 0.00 in0.0 mm 0.00 in0.0 mm
05:55 PM 86.3°F30.2°C 79.4°F26.3°C 80% 2.3 mph ESE3.7 kmh ESE 1.2 mph1.9 kmh 31.70 in1073.5 mb - 0.00 in0.0 mm 0.00 in0.0 mm
06:00 PM 85.3°F29.6°C 79.2°F26.2°C 82% 1.2 mph ESE1.9 kmh ESE 1.2 mph1.9 kmh 31.70 in1073.5 mb - 0.00 in0.0 mm 0.00 in0.0 mm
06:10 PM 84.7°F29.3°C 78.6°F25.9°C 82% 1.2 mph SE1.9 kmh SE 2.3 mph3.7 kmh 31.70 in1073.5 mb - 0.00 in0.0 mm 0.00 in0.0 mm
06:15 PM 85.3°F29.6°C 78.8°F26.0°C 81% Calm Calm -- 31.70 in1073.5 mb - 0.00 in0.0 mm 0.00 in0.0 mm
06:20 PM 84.6°F29.2°C 78.2°F25.7°C 81% 1.2 mph SE1.9 kmh SE 2.3 mph3.7 kmh 31.70 in1073.5 mb - 0.00 in0.0 mm 0.00 in0.0 mm
06:25 PM 83.6°F28.7°C 79.3°F26.3°C 87% 1.2 mph SE1.9 kmh SE 1.2 mph1.9 kmh 31.70 in1073.5 mb - 0.00 in0.0 mm 0.00 in0.0 mm
06:30 PM 83.3°F28.5°C 79.0°F26.1°C 87% 1.2 mph E1.9 kmh E 1.2 mph1.9 kmh 31.70 in1073.5 mb - 0.00 in0.0 mm 0.00 in0.0 mm
06:35 PM 82.8°F28.2°C 79.2°F26.2°C 89% Calm Calm -- 31.70 in1073.5 mb - 0.00 in0.0 mm 0.00 in0.0 mm
06:40 PM 82.6°F28.1°C 79.1°F26.2°C 89% Calm Calm -- 31.70 in1073.5 mb - 0.00 in0.0 mm 0.00 in0.0 mm
06:45 PM 83.0°F28.3°C 79.1°F26.2°C 88% Calm Calm -- 31.70 in1073.5 mb - 0.00 in0.0 mm 0.00 in0.0 mm
06:50 PM 81.8°F27.7°C 78.6°F25.9°C 90% Calm Calm -- 31.70 in1073.5 mb - 0.00 in0.0 mm 0.00 in0.0 mm
06:55 PM 81.2°F27.3°C 78.0°F25.6°C 90% Calm Calm -- 31.70 in1073.5 mb - 0.00 in0.0 mm 0.00 in0.0 mm
07:00 PM 81.5°F27.5°C 78.3°F25.7°C 90% Calm Calm -- 31.70 in1073.5 mb - 0.00 in0.0 mm 0.00 in0.0 mm
07:10 PM 80.2°F26.8°C 78.0°F25.6°C 93% Calm Calm 1.2 mph1.9 kmh 31.70 in1073.5 mb - 0.00 in0.0 mm 0.00 in0.0 mm
07:15 PM 79.2°F26.2°C 78.3°F25.7°C 97% 3.5 mph S5.6 kmh S 3.5 mph5.6 kmh 31.70 in1073.5 mb - 0.00 in0.0 mm 0.00 in0.0 mm
07:20 PM 78.5°F25.8°C 77.6°F25.3°C 97% 5.8 mph SSE9.3 kmh SSE 5.8 mph9.3 kmh 31.70 in1073.5 mb - 0.00 in0.0 mm 0.00 in0.0 mm
07:25 PM 78.6°F25.9°C 76.7°F24.8°C 94% 3.5 mph SSE5.6 kmh SSE 4.6 mph7.4 kmh 31.70 in1073.5 mb - 0.00 in0.0 mm 0.00 in0.0 mm
07:30 PM 78.3°F25.7°C 76.4°F24.7°C 94% 3.5 mph SE5.6 kmh SE 4.6 mph7.4 kmh 31.70 in1073.5 mb - 0.00 in0.0 mm 0.00 in0.0 mm
07:35 PM 77.7°F25.4°C 76.1°F24.5°C 95% 1.2 mph SSE1.9 kmh SSE 1.2 mph1.9 kmh 31.70 in1073.5 mb - 0.00 in0.0 mm 0.00 in0.0 mm
07:40 PM 77.7°F25.4°C 76.1°F24.5°C 95% Calm Calm -- 31.70 in1073.5 mb - 0.00 in0.0 mm 0.00 in0.0 mm
07:45 PM 77.4°F25.2°C 76.2°F24.6°C 96% 2.3 mph SSE3.7 kmh SSE 2.3 mph3.7 kmh 31.70 in1073.5 mb - 0.00 in0.0 mm 0.00 in0.0 mm
07:50 PM 77.4°F25.2°C 76.1°F24.5°C 96% Calm Calm 2.3 mph3.7 kmh 31.70 in1073.5 mb - 0.00 in0.0 mm 0.00 in0.0 mm
07:55 PM 77.0°F25.0°C 75.8°F24.3°C 96% 4.6 mph SE7.4 kmh SE 5.8 mph9.3 kmh 31.70 in1073.5 mb - 0.00 in0.0 mm 0.00 in0.0 mm
08:00 PM 76.8°F24.9°C 75.2°F24.0°C 95% 10.4 mph SSW16.7 kmh SSW 10.4 mph16.7 kmh 31.70 in1073.5 mb - 0.00 in0.0 mm 0.00 in0.0 mm
08:10 PM 76.9°F24.9°C 75.7°F24.3°C 96% 9.2 mph S14.8 kmh S 10.4 mph16.7 kmh 31.70 in1073.5 mb - 0.00 in0.0 mm 0.00 in0.0 mm
08:15 PM 76.7°F24.8°C 76.1°F24.5°C 98% 10.4 mph S16.7 kmh S 10.4 mph16.7 kmh 31.70 in1073.5 mb - 0.00 in0.0 mm 0.00 in0.0 mm
08:20 PM 76.5°F24.7°C 76.2°F24.6°C 99% 8.1 mph W13.0 kmh W 8.1 mph13.0 kmh 31.70 in1073.5 mb - 0.00 in0.0 mm 0.00 in0.0 mm
08:25 PM 76.1°F24.5°C 75.8°F24.3°C 99% 9.2 mph SE14.8 kmh SE 9.2 mph14.8 kmh 31.70 in1073.5 mb - 0.00 in0.0 mm 0.00 in0.0 mm
08:30 PM 75.8°F24.3°C 75.5°F24.2°C 99% 9.2 mph SSE14.8 kmh SSE 11.5 mph18.5 kmh 31.70 in1073.5 mb - 0.00 in0.0 mm 0.00 in0.0 mm
08:35 PM 75.4°F24.1°C 75.1°F23.9°C 99% 6.9 mph SSE11.1 kmh SSE 10.4 mph16.7 kmh 31.70 in1073.5 mb - 0.00 in0.0 mm 0.00 in0.0 mm
08:40 PM 75.2°F24.0°C 74.9°F23.8°C 99% 5.8 mph S9.3 kmh S 5.8 mph9.3 kmh 31.70 in1073.5 mb - 0.00 in0.0 mm 0.00 in0.0 mm
08:45 PM 75.0°F23.9°C 74.7°F23.7°C 99% 6.9 mph SE11.1 kmh SE 8.1 mph13.0 kmh 31.70 in1073.5 mb - 0.00 in0.0 mm 0.00 in0.0 mm
08:50 PM 75.0°F23.9°C 74.7°F23.7°C 99% 5.8 mph SSE9.3 kmh SSE 5.8 mph9.3 kmh 31.70 in1073.5 mb - 0.00 in0.0 mm 0.00 in0.0 mm
08:55 PM 75.0°F23.9°C 74.7°F23.7°C 99% 4.6 mph S7.4 kmh S 5.8 mph9.3 kmh 31.70 in1073.5 mb - 0.00 in0.0 mm 0.00 in0.0 mm
09:00 PM 75.0°F23.9°C 74.7°F23.7°C 99% 6.9 mph S11.1 kmh S 8.1 mph13.0 kmh 31.70 in1073.5 mb - 0.00 in0.0 mm 0.00 in0.0 mm
09:10 PM 74.9°F23.8°C 74.6°F23.7°C 99% 4.6 mph SSW7.4 kmh SSW 5.8 mph9.3 kmh 31.70 in1073.5 mb - 0.00 in0.0 mm 0.00 in0.0 mm
09:15 PM 74.9°F23.8°C 74.6°F23.7°C 99% 4.6 mph S7.4 kmh S 5.8 mph9.3 kmh 31.70 in1073.5 mb - 0.00 in0.0 mm 0.00 in0.0 mm
09:20 PM 74.9°F23.8°C 74.6°F23.7°C 99% 4.6 mph SE7.4 kmh SE 4.6 mph7.4 kmh 31.70 in1073.5 mb - 0.00 in0.0 mm 0.00 in0.0 mm
09:25 PM 74.9°F23.8°C 74.6°F23.7°C 99% 4.6 mph S7.4 kmh S 6.9 mph11.1 kmh 31.70 in1073.5 mb - 0.00 in0.0 mm 0.00 in0.0 mm
09:30 PM 75.2°F24.0°C 74.9°F23.8°C 99% 3.5 mph SE5.6 kmh SE 3.5 mph5.6 kmh 31.70 in1073.5 mb - 0.00 in0.0 mm 0.00 in0.0 mm
09:35 PM 75.2°F24.0°C 74.9°F23.8°C 99% 3.5 mph S5.6 kmh S 6.9 mph11.1 kmh 31.70 in1073.5 mb - 0.00 in0.0 mm 0.00 in0.0 mm
09:40 PM 75.2°F24.0°C 74.9°F23.8°C 99% 4.6 mph SSE7.4 kmh SSE 6.9 mph11.1 kmh 31.70 in1073.5 mb - 0.00 in0.0 mm 0.00 in0.0 mm
09:45 PM 75.4°F24.1°C 75.1°F23.9°C 99% 4.6 mph S7.4 kmh S 5.8 mph9.3 kmh 31.70 in1073.5 mb - 0.00 in0.0 mm 0.00 in0.0 mm
09:50 PM 75.4°F24.1°C 75.1°F23.9°C 99% 5.8 mph SSW9.3 kmh SSW 5.8 mph9.3 kmh 31.70 in1073.5 mb - 0.00 in0.0 mm 0.00 in0.0 mm
09:55 PM 75.4°F24.1°C 75.1°F23.9°C 99% 4.6 mph S7.4 kmh S 5.8 mph9.3 kmh 31.70 in1073.5 mb - 0.00 in0.0 mm 0.00 in0.0 mm
10:00 PM 75.4°F24.1°C 75.1°F23.9°C 99% 5.8 mph S9.3 kmh S 5.8 mph9.3 kmh 31.70 in1073.5 mb - 0.00 in0.0 mm 0.00 in0.0 mm
10:10 PM 75.6°F24.2°C 75.0°F23.9°C 98% 6.9 mph SSE11.1 kmh SSE 6.9 mph11.1 kmh 31.70 in1073.5 mb - 0.00 in0.0 mm 0.00 in0.0 mm
10:15 PM 75.6°F24.2°C 75.3°F24.1°C 99% 4.6 mph SSW7.4 kmh SSW 5.8 mph9.3 kmh 31.70 in1073.5 mb - 0.00 in0.0 mm 0.00 in0.0 mm
10:20 PM 75.6°F24.2°C 75.3°F24.1°C 99% 4.6 mph S7.4 kmh S 5.8 mph9.3 kmh 31.70 in1073.5 mb - 0.00 in0.0 mm 0.00 in0.0 mm
10:25 PM 75.6°F24.2°C 75.3°F24.1°C 99% 5.8 mph SSW9.3 kmh SSW 5.8 mph9.3 kmh 31.70 in1073.5 mb - 0.00 in0.0 mm 0.00 in0.0 mm
10:30 PM 75.6°F24.2°C 75.3°F24.1°C 99% 4.6 mph S7.4 kmh S 5.8 mph9.3 kmh 31.70 in1073.5 mb - 0.00 in0.0 mm 0.00 in0.0 mm
10:35 PM 75.6°F24.2°C 75.3°F24.1°C 99% 5.8 mph S9.3 kmh S 6.9 mph11.1 kmh 31.70 in1073.5 mb - 0.00 in0.0 mm 0.00 in0.0 mm
10:40 PM 75.6°F24.2°C 75.3°F24.1°C 99% 5.8 mph S9.3 kmh S 6.9 mph11.1 kmh 31.70 in1073.5 mb - 0.00 in0.0 mm 0.00 in0.0 mm
10:45 PM 75.8°F24.3°C 75.5°F24.2°C 99% 6.9 mph SE11.1 kmh SE 6.9 mph11.1 kmh 31.70 in1073.5 mb - 0.00 in0.0 mm 0.00 in0.0 mm
10:50 PM 75.9°F24.4°C 75.6°F24.2°C 99% 6.9 mph S11.1 kmh S 8.1 mph13.0 kmh 31.70 in1073.5 mb - 0.00 in0.0 mm 0.00 in0.0 mm
10:55 PM 76.1°F24.5°C 75.8°F24.3°C 99% 8.1 mph SW13.0 kmh SW 9.2 mph14.8 kmh 31.70 in1073.5 mb - 0.00 in0.0 mm 0.00 in0.0 mm
11:00 PM 76.1°F24.5°C 75.8°F24.3°C 99% 8.1 mph SSW13.0 kmh SSW 8.1 mph13.0 kmh 31.70 in1073.5 mb - 0.00 in0.0 mm 0.00 in0.0 mm
11:10 PM 76.1°F24.5°C 75.8°F24.3°C 99% 5.8 mph SE9.3 kmh SE 6.9 mph11.1 kmh 31.70 in1073.5 mb - 0.00 in0.0 mm 0.00 in0.0 mm
11:15 PM 75.9°F24.4°C 75.6°F24.2°C 99% 5.8 mph SE9.3 kmh SE 6.9 mph11.1 kmh 31.70 in1073.5 mb - 0.00 in0.0 mm 0.00 in0.0 mm
11:20 PM 75.8°F24.3°C 75.5°F24.2°C 99% 9.2 mph SSE14.8 kmh SSE 10.4 mph16.7 kmh 31.70 in1073.5 mb - 0.00 in0.0 mm 0.00 in0.0 mm
11:25 PM 75.4°F24.1°C 75.1°F23.9°C 99% 5.8 mph SSE9.3 kmh SSE 6.9 mph11.1 kmh 31.70 in1073.5 mb - 0.00 in0.0 mm 0.00 in0.0 mm
11:30 PM 75.2°F24.0°C 74.9°F23.8°C 99% 9.2 mph S14.8 kmh S 9.2 mph14.8 kmh 31.70 in1073.5 mb - 0.00 in0.0 mm 0.00 in0.0 mm
11:35 PM 75.0°F23.9°C 74.7°F23.7°C 99% 8.1 mph S13.0 kmh S 10.4 mph16.7 kmh 31.70 in1073.5 mb - 0.00 in0.0 mm 0.00 in0.0 mm
11:40 PM 75.0°F23.9°C 74.7°F23.7°C 99% 8.1 mph S13.0 kmh S 10.4 mph16.7 kmh 31.70 in1073.5 mb - 0.00 in0.0 mm 0.00 in0.0 mm
11:45 PM 75.0°F23.9°C 74.7°F23.7°C 99% 8.1 mph S13.0 kmh S 8.1 mph13.0 kmh 31.70 in1073.5 mb - 0.00 in0.0 mm 0.00 in0.0 mm
11:50 PM 75.0°F23.9°C 74.7°F23.7°C 99% 6.9 mph SSE11.1 kmh SSE 8.1 mph13.0 kmh 31.70 in1073.5 mb - 0.00 in0.0 mm 0.00 in0.0 mm
11:55 PM 75.0°F23.9°C 74.7°F23.7°C 99% 6.9 mph S11.1 kmh S 8.1 mph13.0 kmh 31.70 in1073.5 mb - 0.00 in0.0 mm 0.00 in0.0 mm